createdAt,value
2018-06-17T00:01:16.883Z,17.70
2018-06-17T00:03:45.388Z,18.10
2018-06-17T00:06:13.858Z,17.27
2018-06-17T00:08:42.337Z,18.30
2018-06-17T00:11:10.813Z,18.43
2018-06-17T00:13:39.206Z,16.90
2018-06-17T00:16:07.741Z,18.37
2018-06-17T00:18:36.179Z,16.43
2018-06-17T00:21:04.660Z,17.33
2018-06-17T00:23:33.128Z,17.90
2018-06-17T00:26:01.620Z,18.20
2018-06-17T00:28:30.218Z,17.27
2018-06-17T00:30:58.859Z,17.80
2018-06-17T00:33:27.369Z,18.40
2018-06-17T00:35:55.961Z,18.40
2018-06-17T00:38:24.437Z,17.77
2018-06-17T00:40:52.959Z,19.27
2018-06-17T00:43:21.399Z,18.83
2018-06-17T00:45:49.863Z,18.40
2018-06-17T00:48:18.321Z,30.73
2018-06-17T00:50:46.877Z,18.73
2018-06-17T00:53:15.382Z,20.00
2018-06-17T00:55:44.050Z,18.83
2018-06-17T00:58:12.461Z,19.03
2018-06-17T01:00:40.942Z,19.73
2018-06-17T01:03:09.394Z,19.53
2018-06-17T01:05:37.905Z,20.03
2018-06-17T01:08:06.539Z,21.23
2018-06-17T01:10:35.100Z,19.60
2018-06-17T01:13:03.680Z,19.20
2018-06-17T01:15:32.110Z,19.30
2018-06-17T01:18:00.598Z,18.77
2018-06-17T01:20:29.037Z,19.80
2018-06-17T01:22:57.492Z,20.17
2018-06-17T01:25:25.974Z,19.10
2018-06-17T01:27:54.372Z,19.30
2018-06-17T01:30:22.555Z,18.30
2018-06-17T01:32:51.068Z,19.63
2018-06-17T01:35:19.443Z,18.27
2018-06-17T01:37:47.890Z,18.03
2018-06-17T01:40:16.332Z,20.03
2018-06-17T01:42:44.822Z,18.77
2018-06-17T01:45:13.378Z,18.47
2018-06-17T01:47:41.817Z,18.93
2018-06-17T01:50:10.335Z,18.27
2018-06-17T01:52:38.869Z,18.30
2018-06-17T01:55:07.287Z,18.07
2018-06-17T01:57:35.700Z,18.13
2018-06-17T02:00:04.632Z,18.53
2018-06-17T02:02:33.085Z,18.83
2018-06-17T02:05:07.025Z,19.97
2018-06-17T02:07:40.720Z,18.70
2018-06-17T02:10:14.661Z,18.23
2018-06-17T02:12:43.164Z,17.80
2018-06-17T02:15:11.637Z,18.03
2018-06-17T02:17:40.061Z,18.43
2018-06-17T02:20:08.576Z,17.83
2018-06-17T02:22:37.126Z,17.63
2018-06-17T02:25:05.952Z,18.43
2018-06-17T02:27:34.371Z,18.93
2018-06-17T02:30:02.816Z,18.27
2018-06-17T02:32:31.222Z,19.00
2018-06-17T02:34:59.679Z,19.43
2018-06-17T02:37:28.141Z,20.03
2018-06-17T02:39:56.520Z,20.13
2018-06-17T02:42:24.967Z,20.00
2018-06-17T02:44:58.647Z,20.37
2018-06-17T02:47:32.300Z,20.23
2018-06-17T02:50:06.029Z,19.87
2018-06-17T02:52:39.945Z,21.37
2018-06-17T02:55:08.344Z,21.83
2018-06-17T02:57:36.760Z,22.10
2018-06-17T03:00:05.252Z,22.83
2018-06-17T03:02:33.654Z,23.03
2018-06-17T03:05:02.035Z,20.83
2018-06-17T03:07:30.505Z,21.53
2018-06-17T03:09:58.910Z,22.17
2018-06-17T03:12:27.511Z,22.93
2018-06-17T03:14:55.965Z,22.33
2018-06-17T03:17:24.916Z,24.87
2018-06-17T03:19:53.381Z,23.40
2018-06-17T03:22:21.752Z,24.07
2018-06-17T03:24:55.472Z,22.57
2018-06-17T03:27:29.266Z,21.27
2018-06-17T03:30:03.162Z,22.53
2018-06-17T03:32:37.155Z,21.97
2018-06-17T03:35:11.004Z,22.00
2018-06-17T03:37:39.433Z,22.13
2018-06-17T03:40:08.163Z,21.87
2018-06-17T03:42:36.556Z,21.23
2018-06-17T03:45:04.706Z,21.13
2018-06-17T03:47:33.259Z,20.70
2018-06-17T03:50:01.718Z,21.20
2018-06-17T03:52:30.163Z,20.47
2018-06-17T03:54:58.597Z,21.67
2018-06-17T03:57:27.017Z,20.87
2018-06-17T03:59:55.417Z,21.63
2018-06-17T04:02:23.840Z,21.93
2018-06-17T04:04:57.714Z,19.43
2018-06-17T04:07:26.115Z,22.57
2018-06-17T04:09:54.923Z,19.53
2018-06-17T04:12:23.320Z,19.67
2018-06-17T04:14:51.704Z,20.20
2018-06-17T04:17:20.088Z,19.10
2018-06-17T04:19:48.487Z,20.13
2018-06-17T04:22:16.965Z,19.20
2018-06-17T04:24:45.340Z,20.13
2018-06-17T04:27:14.662Z,19.27
2018-06-17T04:29:43.026Z,19.93
2018-06-17T04:32:11.589Z,19.43
2018-06-17T04:34:40.092Z,19.37
2018-06-17T04:37:08.610Z,20.70
2018-06-17T04:39:37.095Z,19.73
2018-06-17T04:42:05.494Z,19.27
2018-06-17T04:44:33.884Z,20.07
2018-06-17T04:47:02.268Z,20.77
2018-06-17T04:49:30.656Z,24.33
2018-06-17T04:51:59.042Z,20.53
2018-06-17T04:54:27.628Z,36.23
2018-06-17T04:56:56.038Z,22.97
2018-06-17T04:59:24.450Z,20.53
2018-06-17T05:01:52.834Z,21.30
2018-06-17T05:04:21.244Z,21.00
2018-06-17T05:06:49.712Z,19.87
2018-06-17T05:09:18.125Z,20.10
2018-06-17T05:11:46.616Z,19.37
2018-06-17T05:14:15.115Z,19.83
2018-06-17T05:16:43.518Z,20.20
2018-06-17T05:19:12.004Z,19.93
2018-06-17T05:21:40.367Z,19.50
2018-06-17T05:24:08.830Z,17.63
2018-06-17T05:26:37.286Z,18.77
2018-06-17T05:29:05.751Z,20.27
2018-06-17T05:31:34.165Z,17.93
2018-06-17T05:34:02.578Z,20.03
2018-06-17T05:36:30.958Z,20.20
2018-06-17T05:38:59.419Z,19.23
2018-06-17T05:41:27.907Z,20.27
2018-06-17T05:43:56.412Z,20.20
2018-06-17T05:46:24.853Z,21.50
2018-06-17T05:48:53.451Z,21.33
2018-06-17T05:51:21.953Z,20.10
2018-06-17T05:53:50.452Z,20.80
2018-06-17T05:56:18.921Z,21.67
2018-06-17T05:58:47.329Z,21.03
2018-06-17T06:01:15.753Z,19.97
2018-06-17T06:03:44.261Z,21.03
2018-06-17T06:06:12.707Z,19.73
2018-06-17T06:08:41.137Z,20.33
2018-06-17T06:11:09.756Z,20.03
2018-06-17T06:13:38.205Z,20.37
2018-06-17T06:16:06.770Z,18.77
2018-06-17T06:18:35.216Z,18.53
2018-06-17T06:21:03.728Z,21.47
2018-06-17T06:23:32.218Z,18.93
2018-06-17T06:26:00.709Z,18.57
2018-06-17T06:28:29.186Z,18.03
2018-06-17T06:30:57.648Z,17.57
2018-06-17T06:33:26.210Z,17.67
2018-06-17T06:35:54.624Z,16.83
2018-06-17T06:38:23.069Z,16.37
2018-06-17T06:40:51.606Z,17.30
2018-06-17T06:43:20.039Z,17.67
2018-06-17T06:45:48.442Z,17.03
2018-06-17T06:48:17.230Z,17.73
2018-06-17T06:50:45.681Z,15.43
2018-06-17T06:53:14.152Z,16.80
2018-06-17T06:55:42.611Z,15.37
2018-06-17T06:58:11.016Z,15.23
2018-06-17T07:00:39.420Z,15.73
2018-06-17T07:03:18.999Z,14.93
2018-06-17T07:05:58.881Z,14.73
2018-06-17T07:08:38.610Z,14.83
2018-06-17T07:11:07.157Z,14.77
2018-06-17T07:13:35.564Z,13.63
2018-06-17T07:16:15.251Z,12.77
2018-06-17T07:18:43.702Z,13.83
2018-06-17T07:21:12.145Z,13.07
2018-06-17T07:23:40.605Z,12.93
2018-06-17T07:26:33.885Z,13.33
2018-06-17T07:29:13.624Z,13.87
2018-06-17T07:31:42.195Z,13.70
2018-06-17T07:34:11.365Z,13.50
2018-06-17T07:36:40.192Z,16.47
2018-06-17T07:40:19.795Z,14.20
2018-06-17T07:42:49.633Z,14.00
2018-06-17T07:45:18.140Z,15.13
2018-06-17T07:47:46.649Z,14.07
2018-06-17T07:50:26.678Z,13.10
2018-06-17T07:53:06.477Z,14.23
2018-06-17T07:55:35.077Z,13.07
2018-06-17T07:58:03.538Z,12.90
2018-06-17T08:00:32.072Z,13.17
2018-06-17T08:03:00.638Z,12.97
2018-06-17T08:05:29.135Z,11.73
2018-06-17T08:07:57.553Z,12.30
2018-06-17T08:10:26.116Z,11.17
2018-06-17T08:12:54.680Z,12.20
2018-06-17T08:15:23.189Z,11.27
2018-06-17T08:17:51.702Z,12.23
2018-06-17T08:20:20.287Z,10.90
2018-06-17T08:22:48.930Z,9.67
2018-06-17T08:25:17.687Z,9.97
2018-06-17T08:27:46.128Z,11.03
2018-06-17T08:30:14.674Z,10.70
2018-06-17T08:32:43.121Z,9.73
2018-06-17T08:35:11.677Z,9.43
2018-06-17T08:37:40.212Z,10.10
2018-06-17T08:40:08.767Z,10.97
2018-06-17T08:42:37.437Z,9.73
2018-06-17T08:45:05.958Z,9.00
2018-06-17T08:47:34.459Z,8.13
2018-06-17T08:50:03.000Z,9.50
2018-06-17T08:52:31.460Z,9.63
2018-06-17T08:54:59.687Z,9.67
2018-06-17T08:57:28.284Z,8.67
2018-06-17T08:59:57.060Z,8.77
2018-06-17T09:02:25.548Z,8.63
2018-06-17T09:04:54.295Z,7.93
2018-06-17T09:07:22.781Z,8.13
2018-06-17T09:09:51.382Z,8.27
2018-06-17T09:12:20.220Z,9.97
2018-06-17T09:14:48.644Z,7.90
2018-06-17T09:17:17.223Z,8.07
2018-06-17T09:19:45.678Z,9.23
2018-06-17T09:22:14.154Z,7.67
2018-06-17T09:24:42.707Z,7.97
2018-06-17T09:27:11.234Z,7.97
2018-06-17T09:29:39.762Z,8.00
2018-06-17T09:32:08.422Z,8.00
2018-06-17T09:34:37.055Z,12.33
2018-06-17T09:37:05.626Z,7.23
2018-06-17T09:39:34.214Z,8.03
2018-06-17T09:42:02.346Z,6.93
2018-06-17T09:44:30.828Z,7.07
2018-06-17T09:46:59.418Z,6.73
2018-06-17T09:49:28.550Z,6.90
2018-06-17T09:51:57.127Z,9.47
2018-06-17T09:54:25.644Z,6.67
2018-06-17T09:56:54.151Z,7.77
2018-06-17T09:59:22.718Z,6.70
2018-06-17T10:01:51.863Z,7.53
2018-06-17T10:04:20.323Z,6.43
2018-06-17T10:06:48.871Z,8.23
2018-06-17T10:09:17.508Z,6.47
2018-06-17T10:11:46.061Z,6.37
2018-06-17T10:14:14.623Z,8.07
2018-06-17T10:16:43.174Z,6.40
2018-06-17T10:19:11.758Z,7.47
2018-06-17T10:21:40.479Z,6.47
2018-06-17T10:24:08.996Z,6.30
2018-06-17T10:26:37.807Z,6.57
2018-06-17T10:29:08.185Z,7.90
2018-06-17T10:31:36.830Z,7.43
2018-06-17T10:34:05.575Z,6.87
2018-06-17T10:36:34.252Z,9.47
2018-06-17T10:39:02.836Z,9.73
2018-06-17T10:41:31.312Z,10.80
2018-06-17T10:43:59.859Z,11.13
2018-06-17T10:46:28.349Z,11.30
2018-06-17T10:48:57.001Z,12.07
2018-06-17T10:51:25.596Z,12.33
2018-06-17T10:53:54.057Z,14.30
2018-06-17T10:56:22.553Z,10.87
2018-06-17T10:58:50.788Z,10.93
2018-06-17T11:01:19.282Z,9.70
2018-06-17T11:03:47.821Z,9.57
2018-06-17T11:06:16.970Z,9.57
2018-06-17T11:08:45.456Z,10.07
2018-06-17T11:11:13.906Z,9.63
2018-06-17T11:13:42.453Z,9.63
2018-06-17T11:16:11.082Z,8.83
2018-06-17T11:18:39.545Z,10.27
2018-06-17T11:21:08.130Z,9.00
2018-06-17T11:23:36.672Z,9.83
2018-06-17T11:26:05.336Z,9.00
2018-06-17T11:28:34.124Z,8.33
2018-06-17T11:31:02.600Z,9.10
2018-06-17T11:33:31.082Z,9.87
2018-06-17T11:35:59.738Z,8.50
2018-06-17T11:38:28.176Z,8.47
2018-06-17T11:40:56.651Z,9.10
2018-06-17T11:43:25.104Z,9.60
2018-06-17T11:45:55.250Z,10.27
2018-06-17T11:48:23.528Z,10.50
2018-06-17T11:50:52.167Z,14.57
2018-06-17T11:53:20.704Z,9.70
2018-06-17T11:55:49.288Z,9.37
2018-06-17T11:58:17.837Z,8.00
2018-06-17T12:00:46.358Z,6.97
2018-06-17T12:03:14.797Z,7.27
2018-06-17T12:05:43.326Z,6.93
2018-06-17T12:08:11.902Z,7.33
2018-06-17T12:10:40.388Z,8.00
2018-06-17T12:13:08.821Z,7.60
2018-06-17T12:15:37.245Z,8.73
2018-06-17T12:18:05.730Z,8.53
2018-06-17T12:20:34.242Z,8.67
2018-06-17T12:23:03.139Z,8.63
2018-06-17T12:25:32.136Z,8.43
2018-06-17T12:28:00.603Z,9.07
2018-06-17T12:30:29.375Z,9.33
2018-06-17T12:32:58.043Z,12.43
2018-06-17T12:35:26.582Z,12.10
2018-06-17T12:37:54.755Z,11.37
2018-06-17T12:40:23.283Z,10.40
2018-06-17T12:42:51.725Z,9.87
2018-06-17T12:45:20.536Z,10.07
2018-06-17T12:47:49.092Z,9.30
2018-06-17T12:50:17.639Z,10.30
2018-06-17T12:52:46.434Z,9.80
2018-06-17T12:55:14.970Z,9.03
2018-06-17T12:57:43.591Z,8.87
2018-06-17T13:00:12.446Z,8.33
2018-06-17T13:02:41.086Z,8.53
2018-06-17T13:05:09.629Z,7.73
2018-06-17T13:07:38.400Z,7.77
2018-06-17T13:10:07.026Z,8.20
2018-06-17T13:12:35.651Z,7.63
2018-06-17T13:15:04.311Z,7.07
2018-06-17T13:17:34.132Z,8.37
2018-06-17T13:20:02.834Z,6.47
2018-06-17T13:22:32.016Z,15.10
2018-06-17T13:25:00.825Z,6.80
2018-06-17T13:27:29.439Z,8.80
2018-06-17T13:29:57.905Z,7.63
2018-06-17T13:32:26.356Z,7.57
2018-06-17T13:34:55.486Z,9.10
2018-06-17T13:37:23.926Z,6.30
2018-06-17T13:39:52.475Z,6.63
2018-06-17T13:42:20.951Z,6.00
2018-06-17T13:44:49.433Z,5.97
2018-06-17T13:47:17.892Z,7.43
2018-06-17T13:49:46.370Z,6.17
2018-06-17T13:52:15.213Z,6.20
2018-06-17T13:54:43.793Z,5.63
2018-06-17T13:57:12.268Z,6.13
2018-06-17T13:59:40.970Z,8.03
2018-06-17T14:02:09.474Z,6.67
2018-06-17T14:04:38.178Z,6.57
2018-06-17T14:07:06.724Z,9.23
2018-06-17T14:09:35.299Z,6.00
2018-06-17T14:12:03.502Z,8.17
2018-06-17T14:14:32.019Z,6.87
2018-06-17T14:17:00.570Z,6.40
2018-06-17T14:19:29.104Z,6.50
2018-06-17T14:21:57.630Z,6.23
2018-06-17T14:24:26.384Z,6.43
2018-06-17T14:26:55.015Z,6.17
2018-06-17T14:29:23.543Z,6.47
2018-06-17T14:31:52.101Z,6.80
2018-06-17T14:34:20.599Z,6.80
2018-06-17T14:36:49.146Z,7.17
2018-06-17T14:39:17.623Z,6.40
2018-06-17T14:41:50.388Z,6.43
2018-06-17T14:45:25.950Z,7.70
2018-06-17T14:47:59.760Z,13.60
2018-06-17T14:51:34.178Z,7.30
2018-06-17T14:54:02.760Z,6.97
2018-06-17T14:56:31.216Z,7.90
2018-06-17T14:58:59.736Z,8.20
2018-06-17T15:01:28.430Z,7.93
2018-06-17T15:03:56.954Z,7.10
2018-06-17T15:06:25.376Z,6.90
2018-06-17T15:08:53.844Z,7.50
2018-06-17T15:11:22.364Z,9.13
2018-06-17T15:13:51.260Z,6.23
2018-06-17T15:16:19.815Z,7.50
2018-06-17T15:18:48.414Z,6.27
2018-06-17T15:21:16.918Z,5.93
2018-06-17T15:23:45.379Z,5.90
2018-06-17T15:26:13.803Z,6.40
2018-06-17T15:28:42.424Z,7.07
2018-06-17T15:31:16.149Z,6.30
2018-06-17T15:33:49.828Z,8.40
2018-06-17T15:36:23.852Z,10.93
2018-06-17T15:38:54.040Z,7.53
2018-06-17T15:41:25.199Z,6.53
2018-06-17T15:43:55.215Z,6.93
2018-06-17T15:46:23.864Z,6.90
2018-06-17T15:48:52.445Z,7.97
2018-06-17T15:51:21.030Z,6.27
2018-06-17T15:53:50.214Z,8.83
2018-06-17T15:56:18.714Z,6.77
2018-06-17T15:58:47.293Z,7.07
2018-06-17T16:01:15.809Z,6.87
2018-06-17T16:03:45.297Z,6.73
2018-06-17T16:06:14.909Z,9.23
2018-06-17T16:08:43.425Z,7.63
2018-06-17T16:11:11.920Z,7.07
2018-06-17T16:13:45.878Z,7.23
2018-06-17T16:16:19.761Z,8.43
2018-06-17T16:18:53.901Z,8.70
2018-06-17T16:21:25.298Z,8.27
2018-06-17T16:23:53.834Z,7.50
2018-06-17T16:26:22.369Z,7.90
2018-06-17T16:28:50.837Z,7.23
2018-06-17T16:31:19.543Z,8.37
2018-06-17T16:33:48.127Z,7.33
2018-06-17T16:36:18.107Z,7.97
2018-06-17T16:38:46.551Z,6.07
2018-06-17T16:41:16.481Z,7.57
2018-06-17T16:43:44.992Z,6.43
2018-06-17T16:46:13.516Z,5.53
2018-06-17T16:48:42.083Z,9.93
2018-06-17T16:51:15.981Z,6.83
2018-06-17T16:53:49.875Z,5.83
2018-06-17T16:56:23.759Z,4.63
2018-06-17T16:58:59.099Z,6.80
2018-06-17T17:01:27.666Z,6.97
2018-06-17T17:03:56.220Z,6.70
2018-06-17T17:06:24.855Z,4.33
2018-06-17T17:08:53.326Z,3.93
2018-06-17T17:11:22.417Z,4.17
2018-06-17T17:13:53.523Z,5.43
2018-06-17T17:16:22.081Z,4.20
2018-06-17T17:18:50.733Z,5.47
2018-06-17T17:21:19.356Z,4.57
2018-06-17T17:23:49.288Z,6.07
2018-06-17T17:26:17.869Z,3.40
2018-06-17T17:28:46.496Z,5.13
2018-06-17T17:31:15.189Z,4.53
2018-06-17T17:33:49.225Z,3.73
2018-06-17T17:36:23.673Z,5.93
2018-06-17T17:38:57.845Z,3.70
2018-06-17T17:41:27.903Z,5.30
2018-06-17T17:43:56.459Z,6.10
2018-06-17T17:46:30.223Z,5.40
2018-06-17T17:49:00.028Z,3.57
2018-06-17T17:51:29.080Z,5.80
2018-06-17T17:53:58.726Z,5.60
2018-06-17T17:56:28.789Z,7.33
2018-06-17T17:58:58.742Z,4.30
2018-06-17T18:01:27.331Z,8.87
2018-06-17T18:03:57.648Z,4.00
2018-06-17T18:06:26.350Z,5.37
2018-06-17T18:08:55.201Z,5.03
2018-06-17T18:11:23.689Z,7.53
2018-06-17T18:13:52.342Z,5.43
2018-06-17T18:16:21.344Z,6.90
2018-06-17T18:18:49.985Z,8.83
2018-06-17T18:21:18.656Z,5.37
2018-06-17T18:23:49.152Z,4.80
2018-06-17T18:26:23.159Z,9.83
2018-06-17T18:28:57.074Z,5.17
2018-06-17T18:31:26.023Z,4.47
2018-06-17T18:33:59.884Z,4.67
2018-06-17T18:36:28.577Z,6.20
2018-06-17T18:38:57.460Z,7.30
2018-06-17T18:41:26.090Z,5.57
2018-06-17T18:43:54.911Z,5.17
2018-06-17T18:46:30.410Z,7.00
2018-06-17T18:49:01.851Z,6.37
2018-06-17T18:51:31.245Z,6.27
2018-06-17T18:53:59.994Z,7.70
2018-06-17T18:56:29.987Z,5.20
2018-06-17T18:58:59.254Z,6.93
2018-06-17T19:01:27.939Z,5.20
2018-06-17T19:03:57.434Z,5.77
2018-06-17T19:06:26.191Z,5.27
2018-06-17T19:09:00.110Z,6.03
2018-06-17T19:11:33.992Z,5.90
2018-06-17T19:14:07.926Z,7.37
2018-06-17T19:16:42.141Z,8.37
2018-06-17T19:19:10.988Z,6.80
2018-06-17T19:21:39.832Z,7.93
2018-06-17T19:24:08.961Z,6.13
2018-06-17T19:26:38.186Z,9.80
2018-06-17T19:29:06.996Z,6.87
2018-06-17T19:31:35.762Z,11.07
2018-06-17T19:34:04.938Z,7.77
2018-06-17T19:36:34.202Z,7.50
2018-06-17T19:39:03.601Z,7.00
2018-06-17T19:41:32.875Z,9.90
2018-06-17T19:44:01.858Z,20.17
2018-06-17T19:46:30.989Z,28.93
2018-06-17T19:48:59.977Z,20.70
2018-06-17T19:51:33.821Z,22.17
2018-06-17T19:54:07.900Z,20.63
2018-06-17T19:56:41.925Z,9.30
2018-06-17T19:59:16.026Z,28.00
2018-06-17T20:01:44.992Z,78.20
2018-06-17T20:04:14.066Z,19.17
2018-06-17T20:06:44.030Z,11.23
2018-06-17T20:09:13.383Z,6.03
2018-06-17T20:11:42.425Z,4.83
2018-06-17T20:14:11.123Z,4.53
2018-06-17T20:16:39.427Z,6.90
2018-06-17T20:19:08.341Z,8.53
2018-06-17T20:21:37.201Z,4.60
2018-06-17T20:24:05.919Z,5.83
2018-06-17T20:26:34.558Z,5.17
2018-06-17T20:29:03.591Z,14.00
2018-06-17T20:31:32.056Z,5.70
2018-06-17T20:34:06.019Z,6.43
2018-06-17T20:37:42.562Z,7.90
2018-06-17T20:40:16.602Z,11.20
2018-06-17T20:42:50.586Z,4.93
2018-06-17T20:45:19.267Z,5.53
2018-06-17T20:47:47.947Z,6.17
2018-06-17T20:50:16.794Z,4.37
2018-06-17T20:52:45.064Z,6.07
2018-06-17T20:55:14.696Z,4.67
2018-06-17T20:57:43.277Z,4.60
2018-06-17T21:00:11.832Z,4.10
2018-06-17T21:02:40.369Z,4.97
2018-06-17T21:05:08.901Z,5.23
2018-06-17T21:07:37.352Z,5.90
2018-06-17T21:10:06.128Z,4.97
2018-06-17T21:12:34.629Z,9.07
2018-06-17T21:15:08.459Z,5.23
2018-06-17T21:17:37.393Z,4.90
2018-06-17T21:20:11.462Z,4.60
2018-06-17T21:22:45.231Z,4.73
2018-06-17T21:25:19.078Z,4.90
2018-06-17T21:27:50.249Z,4.40
2018-06-17T21:30:19.132Z,6.63
2018-06-17T21:32:47.619Z,5.73
2018-06-17T21:35:16.400Z,4.70
2018-06-17T21:37:44.943Z,5.90
2018-06-17T21:40:13.455Z,5.67
2018-06-17T21:42:42.585Z,5.17
2018-06-17T21:45:11.636Z,6.13
2018-06-17T21:47:40.878Z,7.73
2018-06-17T21:50:09.326Z,6.53
2018-06-17T21:52:37.753Z,20.40
2018-06-17T21:55:06.493Z,6.17
2018-06-17T21:57:35.249Z,6.53
2018-06-17T22:00:05.796Z,7.17
2018-06-17T22:02:39.261Z,6.17
2018-06-17T22:05:07.930Z,11.50
2018-06-17T22:07:40.608Z,7.33
2018-06-17T22:10:14.506Z,7.90
2018-06-17T22:12:47.237Z,7.83
2018-06-17T22:15:21.517Z,7.50
2018-06-17T22:17:50.910Z,8.17
2018-06-17T22:20:19.510Z,6.20
2018-06-17T22:22:48.078Z,6.83
2018-06-17T22:25:16.864Z,9.00
2018-06-17T22:27:45.306Z,9.20
2018-06-17T22:30:13.704Z,7.60
2018-06-17T22:32:42.102Z,6.37
2018-06-17T22:35:10.586Z,7.90
2018-06-17T22:37:38.989Z,9.47
2018-06-17T22:40:07.510Z,8.80
2018-06-17T22:42:36.141Z,7.40
2018-06-17T22:45:04.814Z,9.10
2018-06-17T22:47:38.533Z,7.97
2018-06-17T22:50:07.341Z,8.57
2018-06-17T22:53:46.904Z,7.30
2018-06-17T22:56:20.686Z,8.30
2018-06-17T22:58:54.462Z,7.40
2018-06-17T23:01:28.277Z,9.23
2018-06-17T23:04:01.969Z,8.97
2018-06-17T23:06:36.081Z,8.73
2018-06-17T23:09:11.438Z,8.97
2018-06-17T23:11:39.867Z,11.50
2018-06-17T23:14:08.326Z,9.20
2018-06-17T23:16:36.920Z,9.00
2018-06-17T23:19:05.387Z,10.10
2018-06-17T23:21:33.825Z,15.30
2018-06-17T23:24:02.241Z,8.87
2018-06-17T23:26:30.651Z,8.97
2018-06-17T23:28:59.051Z,13.43
2018-06-17T23:31:27.479Z,8.97
2018-06-17T23:33:55.932Z,9.27
2018-06-17T23:36:24.400Z,12.57
2018-06-17T23:38:52.888Z,10.37
2018-06-17T23:41:21.354Z,11.37
2018-06-17T23:43:49.777Z,12.27
2018-06-17T23:46:23.729Z,11.47
2018-06-17T23:48:57.403Z,11.90
2018-06-17T23:51:31.168Z,12.23
2018-06-17T23:54:04.889Z,11.27
2018-06-17T23:56:33.401Z,11.00
2018-06-17T23:59:01.861Z,11.63
